Time;durP1;ratioP1;P1;durP2;ratioP2;P2;SDS_P1;SDS_P2;PMS_P1;PMS_P2;Temp;Humidity;BMP_temperature;BMP_pressure;BME280_temperature;BME280_humidity;BME280_pressure;Samples;Min_cycle;Max_cycle;Signal;HPM_P1;HPM_P2
2022/01/10 00:39:03;;;;;;;48.90;22.40;;;;;;;-0.37;84.86;98640.85;103502;1300;25204;-31
2022/01/10 00:41:30;;;;;;;28.30;11.50;;;;;;;-0.44;84.87;98646.85;103521;1300;24365;-31
2022/01/10 00:43:57;;;;;;;755.00;261.90;;;;;;;-0.48;84.75;98651.70;103641;1300;24178;-28
2022/01/10 00:46:23;;;;;;;470.50;169.30;;;;;;;-0.50;84.95;98660.04;103509;1302;22783;-29
2022/01/10 00:48:49;;;;;;;186.20;67.10;;;;;;;-0.54;85.18;98662.00;103496;1300;24205;-29
2022/01/10 00:51:15;;;;;;;99.90;41.30;;;;;;;-0.58;85.41;98661.64;103503;1300;24297;-26
2022/01/10 00:53:43;;;;;;;21.40;10.10;;;;;;;-0.62;85.57;98668.70;103510;1302;24218;-26
2022/01/10 00:56:09;;;;;;;49.10;19.00;;;;;;;-0.65;85.50;98671.46;103578;1302;24252;-31
2022/01/10 00:58:36;;;;;;;327.10;106.40;;;;;;;-0.62;85.60;98676.52;103563;1302;24331;-26
2022/01/10 01:01:03;;;;;;;305.20;139.00;;;;;;;-0.59;85.73;98677.73;103503;1300;24196;-29
2022/01/10 01:03:29;;;;;;;214.90;109.80;;;;;;;-0.60;86.00;98679.59;103466;1300;24447;-29
2022/01/10 01:05:55;;;;;;;68.90;27.80;;;;;;;-0.60;86.22;98683.88;103575;1302;24224;-31
2022/01/10 01:08:21;;;;;;;122.10;48.30;;;;;;;-0.61;86.23;98687.81;103434;1300;25358;-31
2022/01/10 01:15:57;;;;;;;21.10;8.70;;;;;;;-0.56;86.19;98700.69;103604;1302;22598;-25
2022/01/10 02:20:48;;;;;;;252.70;107.40;;;;;;;0.14;86.24;98765.00;103541;1300;24463;-29
2022/01/10 02:23:14;;;;;;;126.20;70.30;;;;;;;0.09;86.21;98768.61;103472;1302;24235;-25
2022/01/10 02:25:41;;;;;;;102.20;44.70;;;;;;;0.06;86.19;98770.36;103574;1302;24260;-27
2022/01/10 02:28:07;;;;;;;64.00;25.90;;;;;;;0.01;86.06;98776.98;103500;1300;24338;-29
2022/01/10 02:30:33;;;;;;;70.40;31.60;;;;;;;-0.02;85.97;98776.73;103511;1302;24277;-29
2022/01/10 02:33:00;;;;;;;98.60;33.90;;;;;;;-0.02;85.98;98778.66;103512;1300;24366;-25
2022/01/10 02:35:32;;;;;;;34.40;18.10;;;;;;;-0.03;86.02;98781.75;103557;1301;24281;-25
2022/01/10 02:37:58;;;;;;;40.50;20.10;;;;;;;-0.08;86.19;98780.45;103499;1302;24222;-29
2022/01/10 02:40:26;;;;;;;67.20;28.10;;;;;;;-0.12;86.34;98779.47;103566;1300;24252;-28
2022/01/10 02:42:52;;;;;;;45.30;24.40;;;;;;;-0.16;86.56;98782.66;103538;1300;22966;-29
2022/01/10 02:45:18;;;;;;;40.70;21.70;;;;;;;-0.17;86.52;98785.69;103529;1300;24188;-26
2022/01/10 02:47:45;;;;;;;42.20;20.90;;;;;;;-0.18;86.31;98787.55;103532;1302;24533;-26
2022/01/10 02:50:11;;;;;;;22.60;10.70;;;;;;;-0.16;86.52;98791.21;103524;1300;24302;-28
2022/01/10 02:52:38;;;;;;;33.60;14.90;;;;;;;-0.09;86.67;98793.91;103549;1300;24370;-28
2022/01/10 02:55:04;;;;;;;21.30;10.10;;;;;;;-0.04;86.63;98792.92;103573;1300;24222;-29
2022/01/10 02:57:30;;;;;;;19.10;9.50;;;;;;;-0.01;87.05;98796.83;103494;1303;22641;-26
2022/01/10 02:59:57;;;;;;;23.10;11.00;;;;;;;0.06;87.27;98800.14;103514;1300;24274;-26
2022/01/10 03:02:28;;;;;;;76.20;22.80;;;;;;;0.08;87.19;98803.02;103539;1300;24410;-25
2022/01/10 03:04:54;;;;;;;52.40;18.70;;;;;;;0.09;86.80;98801.94;103559;1300;22704;-29
2022/01/10 03:07:22;;;;;;;59.80;17.20;;;;;;;0.04;86.55;98803.66;103530;1300;24263;-29
2022/01/10 03:09:49;;;;;;;58.40;18.30;;;;;;;0.00;86.38;98806.62;103596;1300;24197;-27
2022/01/10 03:12:15;;;;;;;135.50;30.30;;;;;;;-0.02;86.34;98809.95;103519;1300;24372;-28
2022/01/10 03:14:42;;;;;;;102.70;25.60;;;;;;;-0.08;86.37;98808.64;103534;1302;24230;-29
2022/01/10 03:17:10;;;;;;;82.30;22.30;;;;;;;-0.11;86.64;98812.91;103573;1300;24244;-29
2022/01/10 03:19:37;;;;;;;70.90;22.50;;;;;;;-0.11;86.80;98819.23;103533;1300;24342;-29
2022/01/10 03:22:04;;;;;;;24.50;11.80;;;;;;;-0.13;86.82;98823.02;103510;1300;24184;-28
2022/01/10 03:24:30;;;;;;;26.20;13.60;;;;;;;-0.16;86.50;98828.70;103583;1300;23965;-28
2022/01/10 03:26:56;;;;;;;26.80;13.80;;;;;;;-0.17;86.49;98830.08;103517;1302;24395;-28
2022/01/10 03:29:21;;;;;;;29.20;12.30;;;;;;;-0.22;86.62;98834.89;103570;1300;24228;-27
2022/01/10 03:31:47;;;;;;;35.40;14.20;;;;;;;-0.27;86.77;98836.96;103578;1300;24266;-26
2022/01/10 03:34:13;;;;;;;52.00;17.10;;;;;;;-0.26;86.89;98843.20;103525;1300;22711;-27
2022/01/10 03:36:40;;;;;;;58.20;20.10;;;;;;;-0.31;86.87;98844.89;103559;1300;24174;-26
2022/01/10 03:39:06;;;;;;;56.60;19.50;;;;;;;-0.37;86.92;98851.45;103617;1300;24444;-29
2022/01/10 03:41:33;;;;;;;113.20;35.30;;;;;;;-0.38;87.04;98855.09;103556;1300;24247;-25
2022/01/10 03:43:59;;;;;;;106.00;32.30;;;;;;;-0.38;86.86;98857.69;103575;1300;24007;-25
2022/01/10 03:46:27;;;;;;;74.40;25.20;;;;;;;-0.37;87.01;98864.40;103524;1300;24186;-30
2022/01/10 03:48:53;;;;;;;70.50;24.00;;;;;;;-0.38;87.09;98867.02;103578;1300;22619;-27
2022/01/10 03:51:18;;;;;;;64.90;21.20;;;;;;;-0.40;87.17;98867.48;103581;1300;24240;-28
2022/01/10 03:53:44;;;;;;;63.10;23.80;;;;;;;-0.42;87.29;98873.37;103522;1300;24291;-26
2022/01/10 03:56:10;;;;;;;74.40;29.40;;;;;;;-0.43;87.44;98877.52;103581;1300;24254;-26
2022/01/10 03:58:36;;;;;;;65.30;19.80;;;;;;;-0.47;87.54;98879.91;103543;1300;22509;-26
2022/01/10 04:01:03;;;;;;;65.50;17.80;;;;;;;-0.50;87.66;98885.30;103593;1300;24226;-29
2022/01/10 04:03:29;;;;;;;46.80;18.40;;;;;;;-0.53;87.69;98886.61;103537;1300;24345;-26
2022/01/10 04:05:58;;;;;;;59.40;21.40;;;;;;;-0.57;87.77;98888.77;103549;1300;24380;-29
2022/01/10 04:08:24;;;;;;;42.60;17.60;;;;;;;-0.63;87.58;98894.23;103552;1300;24312;-25
2022/01/10 04:10:51;;;;;;;44.30;16.70;;;;;;;-0.70;87.68;98900.16;103083;1300;557768;-28
2022/01/10 04:13:18;;;;;;;46.70;17.90;;;;;;;-0.76;87.86;98900.48;103458;1301;24298;-28
2022/01/10 04:15:44;;;;;;;46.80;17.70;;;;;;;-0.81;88.02;98904.42;103517;1302;24193;-29
2022/01/10 04:18:09;;;;;;;103.50;30.50;;;;;;;-0.85;88.34;98906.00;103500;1300;24223;-28
2022/01/10 04:20:35;;;;;;;61.30;21.30;;;;;;;-0.87;88.35;98910.44;103494;1300;24305;-31
2022/01/10 04:23:02;;;;;;;77.60;26.10;;;;;;;-0.95;88.23;98918.66;103581;1300;24272;-28
2022/01/10 04:25:28;;;;;;;37.50;17.50;;;;;;;-1.04;88.18;98919.97;103569;1300;24218;-28
2022/01/10 04:27:54;;;;;;;47.70;16.30;;;;;;;-1.08;88.41;98920.58;103523;1300;22737;-28
2022/01/10 04:30:20;;;;;;;32.10;14.90;;;;;;;-1.14;88.54;98925.23;103521;1300;24268;-26
2022/01/10 04:32:46;;;;;;;42.70;13.00;;;;;;;-1.20;88.48;98930.21;103471;1302;24352;-29
2022/01/10 04:35:12;;;;;;;47.20;18.50;;;;;;;-1.31;89.64;98933.60;103574;1302;22513;-25
2022/01/10 04:37:38;;;;;;;49.70;19.20;;;;;;;-1.35;89.07;98939.39;103503;1300;24306;-28
2022/01/10 04:40:05;;;;;;;54.10;20.20;;;;;;;-1.42;88.96;98945.98;103561;1300;24431;-29
2022/01/10 04:42:31;;;;;;;52.00;19.70;;;;;;;-1.58;89.81;98946.61;103451;1302;24258;-26
2022/01/10 04:44:57;;;;;;;52.30;19.10;;;;;;;-1.72;90.73;98946.02;103542;1300;24381;-28
2022/01/10 04:47:23;;;;;;;62.60;20.80;;;;;;;-1.79;91.25;98956.65;103622;1300;24279;-28
2022/01/10 04:52:18;;;;;;;58.40;20.80;;;;;;;-1.94;91.49;98968.77;103573;1300;23952;-28
2022/01/10 04:54:44;;;;;;;83.00;24.20;;;;;;;-2.03;91.61;98979.31;103527;1300;24528;-29
2022/01/10 04:57:10;;;;;;;65.60;24.20;;;;;;;-2.11;92.16;98989.18;103474;1299;24328;-30
2022/01/10 04:59:36;;;;;;;88.40;23.70;;;;;;;-2.20;92.33;98993.73;103549;1300;22524;-29
2022/01/10 05:02:02;;;;;;;94.30;31.90;;;;;;;-2.21;91.57;98998.16;103482;1300;24216;-26
2022/01/10 05:04:28;;;;;;;103.50;32.20;;;;;;;-2.17;90.19;98998.39;103512;1301;22817;-25
2022/01/10 05:06:53;;;;;;;100.60;35.10;;;;;;;-2.21;89.37;99002.40;103505;1301;24282;-28
2022/01/10 05:09:19;;;;;;;93.60;31.40;;;;;;;-2.31;89.02;99005.55;103517;1300;24174;-31
2022/01/10 05:11:46;;;;;;;112.80;38.90;;;;;;;-2.43;89.13;99010.31;103620;1300;24336;-27
2022/01/10 05:14:12;;;;;;;115.90;40.70;;;;;;;-2.54;89.37;99012.98;103550;1300;24223;-25
2022/01/10 05:16:40;;;;;;;128.10;40.40;;;;;;;-2.63;89.68;99019.98;103567;1300;24406;-25
2022/01/10 05:19:07;;;;;;;133.80;46.00;;;;;;;-2.68;89.64;99024.98;103515;1300;24453;-29
2022/01/10 05:21:33;;;;;;;126.70;39.30;;;;;;;-2.71;89.82;99029.88;103553;1300;24253;-25
2022/01/10 05:23:59;;;;;;;311.80;90.30;;;;;;;-2.72;89.88;99032.12;103576;1302;24217;-29
2022/01/10 05:26:25;;;;;;;709.30;227.90;;;;;;;-2.74;89.84;99031.38;103536;1300;26351;-26
2022/01/10 05:28:53;;;;;;;589.70;191.30;;;;;;;-2.71;89.99;99036.73;103543;1302;24345;-30
2022/01/10 05:31:18;;;;;;;660.70;205.30;;;;;;;-2.68;89.99;99039.64;103577;1301;22843;-29
2022/01/10 05:33:44;;;;;;;615.30;210.80;;;;;;;-2.64;90.12;99039.17;103592;1300;24418;-29
2022/01/10 05:36:10;;;;;;;656.00;235.60;;;;;;;-2.60;90.16;99044.13;103558;1300;24297;-25
2022/01/10 05:38:36;;;;;;;396.40;138.80;;;;;;;-2.55;90.16;99046.04;103517;1300;24249;-26
2022/01/10 05:41:02;;;;;;;556.00;235.60;;;;;;;-2.56;89.98;99050.52;103470;1302;24282;-25
2022/01/10 05:43:28;;;;;;;343.90;137.90;;;;;;;-2.60;90.12;99053.96;103551;1302;24331;-25
2022/01/10 05:45:54;;;;;;;316.60;117.90;;;;;;;-2.62;90.01;99059.30;103491;1302;24235;-25
2022/01/10 05:48:25;;;;;;;199.80;70.40;;;;;;;-2.62;89.98;99065.99;103541;1300;24400;-30
2022/01/10 05:50:52;;;;;;;259.50;86.80;;;;;;;-2.58;90.02;99070.63;103593;1300;24339;-27
2022/01/10 05:53:19;;;;;;;393.30;150.00;;;;;;;-2.57;90.15;99077.20;103443;1302;24230;-29
2022/01/10 05:55:45;;;;;;;147.00;58.00;;;;;;;-2.60;90.36;99080.72;103464;1300;24250;-24
2022/01/10 05:58:11;;;;;;;246.40;87.00;;;;;;;-2.56;90.38;99086.07;103609;1300;24215;-30
2022/01/10 06:00:37;;;;;;;331.40;113.30;;;;;;;-2.53;90.30;99091.98;103596;1300;24278;-27
2022/01/10 06:03:03;;;;;;;255.30;79.50;;;;;;;-2.50;90.27;99099.11;103679;1300;24669;-27
2022/01/10 06:05:31;;;;;;;163.20;51.20;;;;;;;-2.49;90.07;99104.08;103561;1300;24302;-25
2022/01/10 06:07:58;;;;;;;156.30;50.00;;;;;;;-2.55;89.81;99107.89;103514;1300;24241;-28
2022/01/10 06:10:24;;;;;;;186.30;64.70;;;;;;;-2.54;89.63;99112.71;103599;1300;24222;-27
2022/01/10 06:12:50;;;;;;;118.90;41.30;;;;;;;-2.56;89.50;99120.23;103573;1300;24196;-27
2022/01/10 06:15:16;;;;;;;157.60;62.80;;;;;;;-2.61;89.47;99125.73;103554;1300;24484;-31
2022/01/10 06:17:42;;;;;;;111.60;40.10;;;;;;;-2.65;89.56;99131.47;103537;1300;24347;-26
2022/01/10 06:20:08;;;;;;;175.70;59.80;;;;;;;-2.69;89.44;99133.86;103588;1300;22946;-29
2022/01/10 06:22:34;;;;;;;243.70;70.50;;;;;;;-2.77;89.93;99143.08;103617;1300;22521;-26
2022/01/10 06:25:03;;;;;;;233.10;69.50;;;;;;;-2.78;89.96;99151.20;103587;1300;24309;-30
2022/01/10 06:27:29;;;;;;;145.10;48.10;;;;;;;-2.80;89.73;99156.82;103557;1301;24250;-26
2022/01/10 06:29:55;;;;;;;101.90;38.10;;;;;;;-2.84;89.60;99159.18;103565;1301;25242;-27
2022/01/10 06:32:21;;;;;;;126.00;37.50;;;;;;;-2.86;89.62;99166.89;103723;1300;24248;-26
2022/01/10 06:34:46;;;;;;;112.80;38.40;;;;;;;-2.91;89.73;99173.59;103610;1300;24225;-28
2022/01/10 06:37:12;;;;;;;130.80;40.90;;;;;;;-2.96;89.84;99178.83;103503;1301;24319;-29
2022/01/10 06:39:38;;;;;;;119.10;38.40;;;;;;;-2.99;89.74;99180.64;103531;1300;24193;-26
2022/01/10 06:42:04;;;;;;;162.60;64.90;;;;;;;-3.01;89.72;99189.08;103531;1302;24234;-29
2022/01/10 06:44:30;;;;;;;134.10;41.70;;;;;;;-3.00;89.79;99195.63;103508;1302;24255;-28
2022/01/10 06:46:57;;;;;;;156.70;61.70;;;;;;;-3.02;90.00;99201.42;103547;1300;24180;-27
2022/01/10 06:49:23;;;;;;;301.00;99.60;;;;;;;-3.04;89.99;99208.73;103562;1300;24331;-27
2022/01/10 06:51:49;;;;;;;204.40;63.00;;;;;;;-3.05;90.27;99218.23;103546;1300;24197;-25
2022/01/10 06:54:15;;;;;;;163.90;54.30;;;;;;;-3.04;90.04;99225.49;103597;1300;24186;-27
2022/01/10 06:56:41;;;;;;;184.00;59.90;;;;;;;-3.07;90.02;99231.52;103521;1300;24460;-25
2022/01/10 06:59:07;;;;;;;191.50;56.80;;;;;;;-3.07;90.29;99237.32;103530;1302;24234;-25
2022/01/10 07:01:33;;;;;;;183.40;54.70;;;;;;;-3.03;91.69;99239.11;103530;1300;24185;-31
2022/01/10 07:03:59;;;;;;;156.40;53.20;;;;;;;-2.98;91.39;99250.98;103536;1300;24300;-26
2022/01/10 07:06:25;;;;;;;138.80;43.00;;;;;;;-2.95;90.29;99255.14;103584;1300;24222;-28
2022/01/10 07:08:51;;;;;;;96.80;32.90;;;;;;;-2.94;91.48;99262.95;103529;1300;24219;-27
2022/01/10 07:11:17;;;;;;;130.90;44.70;;;;;;;-2.91;91.49;99272.40;103565;1302;24316;-27
2022/01/10 07:13:43;;;;;;;166.00;52.80;;;;;;;-2.98;91.01;99277.66;103570;1300;24217;-29
2022/01/10 07:16:09;;;;;;;111.40;43.00;;;;;;;-2.98;90.50;99283.61;103533;1300;24284;-25
2022/01/10 07:18:36;;;;;;;122.40;47.80;;;;;;;-3.06;90.61;99285.01;103636;1300;24359;-25
2022/01/10 07:21:02;;;;;;;192.70;65.70;;;;;;;-3.09;90.18;99291.55;103603;1300;24236;-25
2022/01/10 07:23:28;;;;;;;203.30;70.20;;;;;;;-3.04;89.37;99294.52;103546;1300;24264;-29
2022/01/10 07:25:57;;;;;;;161.70;49.30;;;;;;;-3.14;89.04;99299.30;103561;1300;23976;-26
2022/01/10 07:28:24;;;;;;;148.00;54.40;;;;;;;-3.22;89.46;99299.38;103539;1300;24240;-26
2022/01/10 07:30:49;;;;;;;194.90;69.50;;;;;;;-3.25;89.95;99300.80;103542;1300;24224;-26
2022/01/10 07:33:16;;;;;;;168.30;56.30;;;;;;;-3.07;89.56;99307.90;103510;1300;24216;-25
2022/01/10 07:35:42;;;;;;;238.50;74.40;;;;;;;-3.10;89.00;99311.78;103522;1300;24171;-26
2022/01/10 07:38:07;;;;;;;242.20;77.60;;;;;;;-3.09;89.45;99311.91;103547;1302;24202;-29
2022/01/10 07:40:33;;;;;;;264.20;75.80;;;;;;;-3.01;89.11;99317.08;103408;1300;22514;-29
2022/01/10 07:42:59;;;;;;;228.70;66.10;;;;;;;-2.98;88.65;99321.80;103528;1300;24252;-28
2022/01/10 07:45:25;;;;;;;188.50;57.80;;;;;;;-2.95;88.98;99326.09;103507;1300;24234;-26
2022/01/10 07:47:51;;;;;;;132.90;48.70;;;;;;;-2.88;89.15;99329.27;103472;1302;24189;-25
2022/01/10 07:50:17;;;;;;;123.10;41.00;;;;;;;-2.81;89.32;99335.94;103515;1300;24332;-29
2022/01/10 07:52:43;;;;;;;105.80;34.20;;;;;;;-2.72;89.57;99337.36;103546;1299;24469;-25
2022/01/10 07:55:09;;;;;;;112.70;43.80;;;;;;;-2.60;88.50;99342.41;103544;1300;24315;-29
2022/01/10 07:57:36;;;;;;;128.30;47.50;;;;;;;-2.63;87.88;99347.74;103615;1302;24435;-28
2022/01/10 08:00:04;;;;;;;119.80;39.70;;;;;;;-2.66;87.82;99353.21;103539;1301;24152;-27
2022/01/10 08:02:30;;;;;;;107.80;39.00;;;;;;;-2.67;87.34;99356.27;103500;1300;24281;-25
2022/01/10 08:04:55;;;;;;;103.00;32.90;;;;;;;-2.82;86.85;99362.80;103557;1300;23971;-25
2022/01/10 08:07:21;;;;;;;73.20;29.00;;;;;;;-2.84;86.77;99365.77;103595;1300;24237;-25
2022/01/10 08:09:47;;;;;;;75.90;27.00;;;;;;;-2.86;86.92;99373.79;103525;1300;24330;-26
2022/01/10 08:12:13;;;;;;;95.10;31.80;;;;;;;-2.85;86.74;99377.56;103555;1300;22652;-25
2022/01/10 08:14:39;;;;;;;86.50;31.60;;;;;;;-2.87;86.50;99382.63;103480;1301;24343;-29
2022/01/10 08:17:05;;;;;;;113.90;37.70;;;;;;;-2.92;86.66;99386.16;103554;1300;24377;-29
2022/01/10 08:19:33;;;;;;;292.90;113.80;;;;;;;-2.82;86.58;99386.11;103504;1300;24308;-28
2022/01/10 08:22:00;;;;;;;199.00;69.50;;;;;;;-2.78;86.13;99388.80;103537;1300;24345;-28
2022/01/10 08:24:26;;;;;;;193.80;70.90;;;;;;;-2.80;86.00;99390.02;103514;1300;24209;-28
2022/01/10 08:26:54;;;;;;;164.50;59.00;;;;;;;-2.80;85.80;99394.05;103584;1302;24331;-25
2022/01/10 08:29:20;;;;;;;93.00;37.60;;;;;;;-2.89;86.23;99396.60;103497;1300;24189;-29
2022/01/10 08:31:45;;;;;;;84.90;33.20;;;;;;;-2.88;86.48;99402.81;103455;1300;24313;-26
2022/01/10 08:34:12;;;;;;;96.00;33.80;;;;;;;-2.76;86.47;99409.20;103586;1300;24225;-29
2022/01/10 08:36:37;;;;;;;104.00;40.20;;;;;;;-2.67;86.07;99412.35;103570;1300;24186;-28
2022/01/10 08:39:04;;;;;;;98.20;37.00;;;;;;;-2.57;86.19;99417.75;103547;1300;24316;-26
2022/01/10 08:41:30;;;;;;;91.90;36.80;;;;;;;-2.54;85.55;99421.61;103521;1300;22821;-29
2022/01/10 08:43:56;;;;;;;106.80;40.60;;;;;;;-2.47;85.44;99424.94;103579;1299;24275;-29
2022/01/10 08:46:22;;;;;;;74.00;30.90;;;;;;;-2.38;85.39;99430.19;103619;1300;24205;-29
2022/01/10 08:48:49;;;;;;;113.90;39.50;;;;;;;-2.30;84.95;99437.38;103532;1300;24928;-26
2022/01/10 08:51:14;;;;;;;125.60;40.90;;;;;;;-2.15;84.98;99442.55;103596;1300;24211;-31
2022/01/10 08:53:40;;;;;;;109.20;40.60;;;;;;;-2.01;84.23;99444.14;103527;1300;24217;-29
2022/01/10 08:56:06;;;;;;;94.50;35.70;;;;;;;-1.78;84.67;99440.09;103529;1300;24302;-25
2022/01/10 08:58:32;;;;;;;108.40;37.30;;;;;;;-1.72;84.41;99447.91;103519;1300;24230;-25
2022/01/10 09:00:59;;;;;;;98.00;35.90;;;;;;;-1.62;83.14;99455.73;103524;1300;24227;-29
2022/01/10 09:03:25;;;;;;;136.70;47.00;;;;;;;-1.50;82.77;99460.02;103532;1300;24372;-29
2022/01/10 09:05:54;;;;;;;139.40;43.50;;;;;;;-1.35;82.78;99463.27;103577;1300;24213;-29
2022/01/10 09:08:21;;;;;;;108.20;38.20;;;;;;;-1.31;82.47;99467.04;103562;1300;24336;-29
2022/01/10 09:10:47;;;;;;;87.00;37.60;;;;;;;-1.26;82.19;99471.87;103613;1300;24218;-26
2022/01/10 09:13:13;;;;;;;97.10;38.50;;;;;;;-1.18;82.62;99478.61;103541;1300;24214;-29
2022/01/10 09:15:38;;;;;;;118.90;41.00;;;;;;;-1.01;82.38;99483.11;103573;1300;24192;-26
2022/01/10 09:18:05;;;;;;;101.50;40.10;;;;;;;-0.89;81.57;99480.92;103544;1300;24203;-26
2022/01/10 09:20:31;;;;;;;137.90;44.80;;;;;;;-0.85;80.52;99489.92;103515;1300;23067;-26
2022/01/10 09:22:57;;;;;;;119.50;40.70;;;;;;;-0.88;79.96;99492.27;103565;1300;24161;-26
2022/01/10 09:25:23;;;;;;;110.00;39.10;;;;;;;-0.86;79.79;99493.36;103565;1302;24237;-26
2022/01/10 09:27:49;;;;;;;87.70;32.50;;;;;;;-0.81;79.59;99495.60;103558;1300;24333;-29
2022/01/10 09:30:15;;;;;;;93.70;32.70;;;;;;;-0.70;78.73;99498.88;103468;1300;24599;-26
2022/01/10 09:32:41;;;;;;;93.70;34.50;;;;;;;-0.59;77.87;99502.81;103520;1300;24280;-25
2022/01/10 09:35:08;;;;;;;78.10;30.00;;;;;;;-0.48;77.08;99505.75;103458;1302;24346;-29
2022/01/10 09:37:34;;;;;;;68.50;30.70;;;;;;;-0.41;76.72;99508.55;103540;1300;24143;-25
2022/01/10 09:39:59;;;;;;;78.10;34.00;;;;;;;-0.32;75.86;99514.35;103539;1300;24295;-29
2022/01/10 09:42:26;;;;;;;76.90;29.00;;;;;;;-0.23;75.30;99524.17;103524;1300;24140;-29
2022/01/10 09:44:52;;;;;;;61.60;30.50;;;;;;;-0.15;75.23;99524.76;103536;1300;24198;-25
2022/01/10 09:47:18;;;;;;;63.40;29.80;;;;;;;-0.01;74.96;99529.02;103591;1300;24344;-29
2022/01/10 09:49:44;;;;;;;61.80;26.40;;;;;;;0.11;72.33;99533.20;103517;1300;24401;-29
2022/01/10 09:52:09;;;;;;;68.40;28.60;;;;;;;0.01;71.75;99539.13;103518;1300;24215;-26
2022/01/10 09:54:35;;;;;;;58.70;26.40;;;;;;;0.00;70.74;99544.65;103530;1300;24279;-26
2022/01/10 09:57:02;;;;;;;71.40;28.20;;;;;;;-0.16;70.87;99547.16;103605;1300;24443;-25
2022/01/10 09:59:29;;;;;;;71.70;29.80;;;;;;;-0.16;71.13;99549.28;103529;1300;24190;-25
2022/01/10 10:01:55;;;;;;;78.20;31.80;;;;;;;-0.11;70.54;99553.46;103558;1301;24370;-26
2022/01/10 10:04:21;;;;;;;80.00;33.20;;;;;;;-0.19;70.64;99555.52;103482;1300;24191;-29
2022/01/10 10:06:47;;;;;;;82.80;32.70;;;;;;;-0.26;71.55;99557.14;103568;1302;24226;-26
2022/01/10 10:09:13;;;;;;;78.30;30.20;;;;;;;-0.16;71.83;99562.65;103570;1300;24380;-29
2022/01/10 10:11:42;;;;;;;63.50;28.50;;;;;;;0.01;71.21;99564.27;103603;1300;24334;-26
2022/01/10 10:14:10;;;;;;;87.50;30.50;;;;;;;0.01;71.25;99573.29;103551;1300;24324;-29
2022/01/10 10:16:37;;;;;;;71.50;28.20;;;;;;;0.12;70.28;99574.64;103591;1300;24315;-28
2022/01/10 10:19:06;;;;;;;64.50;27.10;;;;;;;0.15;69.91;99577.24;103613;1300;22518;-29
2022/01/10 10:21:35;;;;;;;81.50;32.80;;;;;;;0.19;70.47;99580.60;103513;1300;22515;-29
2022/01/10 10:24:05;;;;;;;61.20;26.70;;;;;;;0.32;69.89;99584.13;103620;1300;22649;-26
2022/01/10 10:26:34;;;;;;;57.70;24.90;;;;;;;0.41;69.32;99590.23;103555;1300;24359;-25
2022/01/10 10:29:03;;;;;;;55.90;25.90;;;;;;;0.51;69.39;99594.11;103558;1300;24273;-25
2022/01/10 10:31:35;;;;;;;79.10;30.50;;;;;;;0.62;68.43;99598.71;103545;1300;24351;-25
2022/01/10 10:34:04;;;;;;;93.50;35.60;;;;;;;0.53;69.15;99606.52;103511;1300;22711;-29
2022/01/10 10:36:35;;;;;;;88.60;34.80;;;;;;;0.65;69.15;99607.78;103586;1300;22509;-29
2022/01/10 10:39:07;;;;;;;94.80;32.40;;;;;;;0.91;69.20;99610.70;103603;1300;25409;-25
2022/01/10 10:41:37;;;;;;;108.80;34.50;;;;;;;0.96;67.99;99615.95;103567;1300;24301;-31
2022/01/10 10:44:06;;;;;;;87.50;34.90;;;;;;;0.90;68.34;99622.58;103549;1300;23131;-25
2022/01/10 10:46:36;;;;;;;65.80;30.30;;;;;;;0.87;69.00;99626.55;103579;1300;22842;-29
2022/01/10 10:49:06;;;;;;;78.70;35.60;;;;;;;0.92;69.45;99630.58;103589;1300;22804;-29
2022/01/10 10:51:36;;;;;;;68.40;30.00;;;;;;;1.07;68.19;99632.45;103593;1300;24405;-25
2022/01/10 10:54:07;;;;;;;88.80;32.50;;;;;;;1.06;68.29;99638.18;103575;1300;24216;-25
2022/01/10 10:56:38;;;;;;;81.10;34.20;;;;;;;1.11;68.43;99643.70;103546;1300;25358;-25
2022/01/10 10:59:08;;;;;;;65.40;28.60;;;;;;;1.27;68.17;99642.73;103431;1300;22803;-29
2022/01/10 11:01:36;;;;;;;76.40;32.50;;;;;;;1.34;67.66;99648.99;103525;1300;22515;-31
2022/01/10 11:04:04;;;;;;;96.40;36.10;;;;;;;1.33;66.12;99650.18;103563;1300;22570;-29
2022/01/10 11:06:32;;;;;;;97.30;39.50;;;;;;;1.23;65.99;99657.16;103561;1300;24412;-29
2022/01/10 11:09:00;;;;;;;75.50;34.40;;;;;;;1.07;66.08;99659.21;103486;1300;24359;-29
2022/01/10 11:11:25;;;;;;;71.00;33.20;;;;;;;0.94;66.46;99659.46;103528;1300;24226;-26
2022/01/10 11:13:55;;;;;;;84.40;33.30;;;;;;;0.81;65.94;99660.73;103566;1300;24274;-26
2022/01/10 11:16:21;;;;;;;89.40;33.50;;;;;;;0.65;67.12;99663.25;103549;1300;22571;-25
2022/01/10 11:18:48;;;;;;;75.10;31.30;;;;;;;0.73;67.53;99666.11;103539;1300;24223;-29
2022/01/10 11:21:15;;;;;;;85.40;31.10;;;;;;;0.79;67.49;99669.34;103514;1300;24622;-31
2022/01/10 11:23:43;;;;;;;77.90;35.00;;;;;;;0.71;67.53;99675.27;103534;1300;24344;-28
2022/01/10 11:26:09;;;;;;;72.00;30.90;;;;;;;0.68;67.41;99675.15;103560;1302;23858;-29
2022/01/10 11:28:42;;;;;;;70.30;30.70;;;;;;;0.63;67.22;99676.09;103486;1301;24305;-29
2022/01/10 11:31:09;;;;;;;68.00;31.70;;;;;;;0.55;66.94;99679.74;103580;1300;24002;-28
2022/01/10 11:33:37;;;;;;;69.60;30.70;;;;;;;0.54;67.18;99686.04;103587;1300;24454;-26
2022/01/10 11:36:07;;;;;;;80.70;28.60;;;;;;;0.42;67.91;99687.67;103543;1300;22519;-26
2022/01/10 11:38:35;;;;;;;74.00;36.20;;;;;;;0.38;69.13;99698.99;103488;1302;25899;-25
2022/01/10 11:41:04;;;;;;;86.80;34.80;;;;;;;0.44;70.14;99702.91;103536;1300;24442;-29
2022/01/10 11:43:31;;;;;;;65.90;27.70;;;;;;;0.55;70.31;99708.33;103548;1300;24186;-25
2022/01/10 11:46:03;;;;;;;99.40;34.70;;;;;;;0.46;70.01;99712.17;103572;1300;24377;-25
2022/01/10 11:48:41;;;;;;;78.50;35.70;;;;;;;0.59;69.14;99717.69;103598;1300;25253;-25
2022/01/10 11:51:13;;;;;;;68.80;25.90;;;;;;;0.31;70.48;99726.48;103578;1300;24224;-27
2022/01/10 11:53:44;;;;;;;86.40;38.20;;;;;;;0.35;71.51;99725.23;103591;1301;24263;-31
2022/01/10 11:56:17;;;;;;;63.30;27.80;;;;;;;0.48;71.06;99723.88;103570;1301;22717;-26
2022/01/10 11:58:43;;;;;;;84.90;33.40;;;;;;;0.45;69.92;99731.85;103587;1300;24331;-29
2022/01/10 12:01:09;;;;;;;91.80;36.30;;;;;;;0.35;69.55;99734.92;103593;1299;24174;-28
2022/01/10 12:03:37;;;;;;;89.40;36.30;;;;;;;-0.13;70.93;99742.05;103655;1300;24223;-28
2022/01/10 12:06:02;;;;;;;81.70;33.00;;;;;;;-0.34;72.52;99749.58;103567;1300;22597;-27
2022/01/10 12:08:28;;;;;;;90.70;36.00;;;;;;;-0.30;72.84;99751.48;103443;1301;24358;-29
2022/01/10 12:10:55;;;;;;;84.00;37.40;;;;;;;-0.34;71.64;99757.26;103190;1301;498692;-28
2022/01/10 12:13:26;;;;;;;84.00;36.60;;;;;;;-0.44;71.77;99760.52;103574;1300;24464;-25
2022/01/10 12:15:51;;;;;;;76.30;33.20;;;;;;;-0.70;72.81;99766.90;103490;1300;24230;-28
2022/01/10 12:18:17;;;;;;;71.80;30.00;;;;;;;-0.48;71.60;99769.83;103499;1300;24181;-29
2022/01/10 12:20:43;;;;;;;84.20;31.30;;;;;;;-0.38;70.80;99772.91;103503;1300;24217;-26
2022/01/10 12:23:09;;;;;;;89.20;30.00;;;;;;;-0.52;71.39;99779.60;103566;1300;24409;-24
2022/01/10 12:25:35;;;;;;;72.70;33.20;;;;;;;-0.51;71.62;99781.48;103572;1300;24229;-29
2022/01/10 12:28:04;;;;;;;95.00;36.80;;;;;;;-0.39;70.90;99784.78;103430;1300;22964;-31
2022/01/10 12:30:30;;;;;;;84.00;28.10;;;;;;;-0.41;71.26;99787.34;103581;1302;22882;-27
2022/01/10 12:32:56;;;;;;;100.90;38.40;;;;;;;-0.42;71.57;99791.88;103525;1300;24325;-28
2022/01/10 12:35:22;;;;;;;97.50;41.40;;;;;;;-0.58;72.00;99799.91;103545;1300;24311;-26
2022/01/10 12:37:48;;;;;;;87.40;34.90;;;;;;;-0.62;72.18;99801.45;103609;1300;24267;-25
2022/01/10 12:40:15;;;;;;;100.30;33.40;;;;;;;-0.95;73.26;99814.12;103581;1300;24358;-29
2022/01/10 12:42:46;;;;;;;76.00;32.80;;;;;;;-1.12;74.37;99824.16;103547;1300;24343;-29
2022/01/10 12:45:12;;;;;;;96.30;34.10;;;;;;;-1.08;73.95;99823.88;103482;1300;24236;-29
2022/01/10 12:47:43;;;;;;;88.70;34.30;;;;;;;-1.16;74.15;99834.46;103496;1300;24233;-29
2022/01/10 12:50:09;;;;;;;89.30;34.80;;;;;;;-1.34;75.38;99841.20;103524;1301;24189;-29
2022/01/10 12:52:36;;;;;;;87.80;34.30;;;;;;;-1.37;75.01;99855.96;103512;1300;24407;-25